Overbrook, KS

2:08 PM CDT on October 18, 2019 (GMT -0500)
Overbrook Kansas | | Change Station
Active Advisory: Wind Advisory

Elev 1171 ft 38.78 °N, 95.59 °W | Updated 15 seconds ago

Clear
Clear
72.9 °F
Feels Like 77 °F
N
14
Wind Variable Wind from SE
Gusts 16.0 mph

Today
High -- | Low -- °F
--% Chance of Precip.
Yesterday
High -- | Low -- °F
Precip. -- in
Pressure 29.66 in
Visibility 10.0 miles
Clouds Clear
Heat Index 77 °F
Dew Point 48 °F
Humidity 42%
Rainfall 0.00 in
Snow Depth Not available.
7:34 AM 6:39 PM
Waning Gibbous, 78% visible
METAR KFOE 181853Z 16023G31KT 10SM CLR 23/05 A2968 RMK AO2 PK WND 18031/1848 SLP044 T02280050
Pressure 29.66 in
Visibility 10.0 miles
Clouds Clear
Heat Index 77 °F
Dew Point 48 °F
Humidity 42%
Rainfall 0.00 in
Snow Depth Not available.
7:34 AM 6:39 PM
Waning Gibbous, 78% visible
METAR KFOE 181853Z 16023G31KT 10SM CLR 23/05 A2968 RMK AO2 PK WND 18031/1848 SLP044 T02280050

Get Your Daily Forecast Email!

Thanks for signing up!

Be on the lookout for a verification email in your inbox.

You'll start receiving severe weather alerts in your inbox..

×

10-Day Weather Forecast

Almanac

Astronomy

Oct. 18, 2019 Rise Set
Actual Time
Civil Twilight
Nautical Twilight
Astronomical Twilight
Moon
Length of Visible Light
Length of Day
Tomorrow will be .
, % of the Moon is Illuminated

Today's Extremes

State Highs State Lows

Community

WunderPhotos

Category 6

Welcome to Category 6. This is the collective home for Weather Underground's featured writeups by Dr. Jeff Masters (right), Bob Henson (left), Chris Burt, and other regular contributors.

Nearby

Air Quality

  Air Quality AQ Index Pollutant
Not available.

Snow Depth

Station Depth Elevation

Earthquake Activity

City Distance Mag. Time & Date
Minimum magnitude displayed is 2.5.

Coastal Water Temperatures

Place Temperature

Stations

Nearby Weather Stations

Station Location Temp. Windchill Dew Point Humidity Wind Precip. Elev Updated Type
                   

Watches & Warnings

Wind Advisory
Issued: 4:23 AM CDT Oct. 18, 2019 – National Weather Service

... Wind Advisory remains in effect from 9 am this morning to 6 PM
CDT this evening...

* what... south winds 25 to 30 mph with gusts up to 45 mph
expected.

* Where... north central, and portions of northeast, and east
central Kansas.

* When... from 9 am to 6 PM CDT.

* Impacts... gusty winds could blow around unsecured objects.
Driving high profile vehicles on east to west oriented roads
will be difficult.

Precautionary/preparedness actions...

Use extra caution when driving, especially if operating a high
profile vehicle. Secure outdoor objects.